createdAt,value
2019-04-03T00:01:46.074Z,64.60
2019-04-03T00:04:17.537Z,65.50
2019-04-03T00:06:47.838Z,65.70
2019-04-03T00:09:18.291Z,65.10
2019-04-03T00:11:47.806Z,65.90
2019-04-03T00:14:17.326Z,65.90
2019-04-03T00:16:50.249Z,65.70
2019-04-03T00:19:20.345Z,65.70
2019-04-03T00:21:50.607Z,64.60
2019-04-03T00:24:22.123Z,65.00
2019-04-03T00:26:52.697Z,65.90
2019-04-03T00:29:22.678Z,65.30
2019-04-03T00:31:54.062Z,65.10
2019-04-03T00:34:23.888Z,65.80
2019-04-03T00:36:53.715Z,64.80
2019-04-03T00:39:24.422Z,65.30
2019-04-03T00:41:55.164Z,63.90
2019-04-03T00:44:24.819Z,64.50
2019-04-03T00:46:55.729Z,64.90
2019-04-03T00:49:26.079Z,65.80
2019-04-03T00:51:57.455Z,64.90
2019-04-03T00:54:27.216Z,64.70
2019-04-03T00:56:57.654Z,64.80
2019-04-03T00:59:27.486Z,65.20
2019-04-03T01:01:57.179Z,65.10
2019-04-03T01:04:28.937Z,65.80
2019-04-03T01:06:59.006Z,65.40
2019-04-03T01:09:29.846Z,65.70
2019-04-03T01:12:05.792Z,65.30
2019-04-03T01:14:35.610Z,64.50
2019-04-03T01:17:05.514Z,64.40
2019-04-03T01:19:36.748Z,64.60
2019-04-03T01:22:08.759Z,65.50
2019-04-03T01:24:39.070Z,65.40
2019-04-03T01:27:12.260Z,65.60
2019-04-03T01:29:43.220Z,66.40
2019-04-03T01:32:15.503Z,66.00
2019-04-03T01:34:44.108Z,65.90
2019-04-03T01:37:14.034Z,66.20
2019-04-03T01:39:43.170Z,65.10
2019-04-03T01:42:14.255Z,66.20
2019-04-03T01:44:57.781Z,64.40
2019-04-03T01:47:29.944Z,66.40
2019-04-03T01:49:59.403Z,66.10
2019-04-03T01:52:31.845Z,67.70
2019-04-03T01:55:03.345Z,67.60
2019-04-03T01:57:32.232Z,67.30
2019-04-03T02:00:06.967Z,66.70
2019-04-03T02:02:36.881Z,66.80
2019-04-03T02:05:07.863Z,67.10
2019-04-03T02:07:37.907Z,66.90
2019-04-03T02:10:12.377Z,64.70
2019-04-03T02:12:41.990Z,66.40
2019-04-03T02:15:11.226Z,65.70
2019-04-03T02:17:40.361Z,66.60
2019-04-03T02:20:10.446Z,65.90
2019-04-03T02:22:41.560Z,67.30
2019-04-03T02:25:10.557Z,68.30
2019-04-03T02:27:39.751Z,67.60
2019-04-03T02:30:12.281Z,68.90
2019-04-03T02:32:43.172Z,69.30
2019-04-03T02:35:12.590Z,68.80
2019-04-03T02:37:42.493Z,68.10
2019-04-03T02:40:14.802Z,68.00
2019-04-03T02:42:44.539Z,67.50
2019-04-03T02:45:14.337Z,68.40
2019-04-03T02:47:44.390Z,67.80
2019-04-03T02:50:17.013Z,67.40
2019-04-03T02:52:46.274Z,68.80
2019-04-03T02:55:16.792Z,68.80
2019-04-03T02:57:48.508Z,67.80
2019-04-03T03:00:19.055Z,67.80
2019-04-03T03:02:49.605Z,67.70
2019-04-03T03:05:18.778Z,67.60
2019-04-03T03:07:49.310Z,68.00
2019-04-03T03:10:21.924Z,68.60
2019-04-03T03:12:51.152Z,66.70
2019-04-03T03:15:20.341Z,66.90
2019-04-03T03:17:50.276Z,66.30
2019-04-03T03:20:22.639Z,67.60
2019-04-03T03:22:51.854Z,65.70
2019-04-03T03:25:20.998Z,65.20
2019-04-03T03:27:50.203Z,65.90
2019-04-03T03:30:35.983Z,66.00
2019-04-03T03:32:50.635Z,65.30
2019-04-03T03:35:27.890Z,66.40
2019-04-03T03:37:51.100Z,66.20
2019-04-03T03:40:20.336Z,65.90
2019-04-03T03:42:49.563Z,65.10
2019-04-03T03:45:20.586Z,65.40
2019-04-03T03:47:49.969Z,66.30
2019-04-03T03:50:25.079Z,66.60
2019-04-03T03:52:55.461Z,65.90
2019-04-03T03:55:25.649Z,67.10
2019-04-03T03:57:56.322Z,67.60
2019-04-03T04:00:25.789Z,67.80
2019-04-03T04:02:55.296Z,68.20
2019-04-03T04:05:24.601Z,68.00
2019-04-03T04:07:53.849Z,67.70
2019-04-03T04:10:25.195Z,67.30
2019-04-03T04:12:53.952Z,67.30
2019-04-03T04:15:23.779Z,67.30
2019-04-03T04:17:53.554Z,66.70
2019-04-03T04:20:23.284Z,65.90
2019-04-03T04:22:52.902Z,65.80
2019-04-03T04:25:22.296Z,65.70
2019-04-03T04:27:51.501Z,66.00
2019-04-03T04:30:22.085Z,66.40
2019-04-03T04:32:51.275Z,64.50
2019-04-03T04:35:21.514Z,64.60
2019-04-03T04:37:51.376Z,65.60
2019-04-03T04:40:21.576Z,65.50
2019-04-03T04:42:51.230Z,64.90
2019-04-03T04:45:20.500Z,65.10
2019-04-03T04:47:49.640Z,64.90
2019-04-03T04:50:27.836Z,64.40
2019-04-03T04:52:58.689Z,64.50
2019-04-03T04:55:30.425Z,64.50
2019-04-03T04:57:58.783Z,64.20
2019-04-03T05:00:29.500Z,64.50
2019-04-03T05:03:01.063Z,64.80
2019-04-03T05:05:31.103Z,64.50
2019-04-03T05:08:01.966Z,64.60
2019-04-03T05:10:31.906Z,64.20
2019-04-03T05:13:01.633Z,63.80
2019-04-03T05:15:30.799Z,63.50
2019-04-03T05:18:00.125Z,63.60
2019-04-03T05:20:29.460Z,63.40
2019-04-03T05:22:59.335Z,63.80
2019-04-03T05:25:29.860Z,63.80
2019-04-03T05:27:59.355Z,63.40
2019-04-03T05:30:31.764Z,63.30
2019-04-03T05:33:01.084Z,63.40
2019-04-03T05:35:30.232Z,63.90
2019-04-03T05:37:59.368Z,64.10
2019-04-03T05:40:28.475Z,63.60
2019-04-03T05:42:58.105Z,63.50
2019-04-03T05:45:28.593Z,63.60
2019-04-03T05:47:57.751Z,63.80
2019-04-03T05:50:27.223Z,64.90
2019-04-03T05:52:56.937Z,63.70
2019-04-03T05:55:26.115Z,63.60
2019-04-03T05:57:55.401Z,63.80
2019-04-03T06:00:24.802Z,63.80
2019-04-03T06:02:56.924Z,64.70
2019-04-03T06:05:26.199Z,64.70
2019-04-03T06:07:55.378Z,65.80
2019-04-03T06:10:27.314Z,66.20
2019-04-03T06:12:55.791Z,65.30
2019-04-03T06:15:25.108Z,64.70
2019-04-03T06:17:55.696Z,64.90
2019-04-03T06:20:25.242Z,66.20
2019-04-03T06:22:54.720Z,65.30
2019-04-03T06:25:24.095Z,66.20
2019-04-03T06:27:53.709Z,64.80
2019-04-03T06:30:24.926Z,63.60
2019-04-03T06:32:57.275Z,63.80
2019-04-03T06:35:26.853Z,63.90
2019-04-03T06:37:56.911Z,63.80
2019-04-03T06:40:26.150Z,65.00
2019-04-03T06:42:55.699Z,63.80
2019-04-03T06:45:26.125Z,64.90
2019-04-03T06:47:55.766Z,64.90
2019-04-03T06:50:24.878Z,64.50
2019-04-03T06:52:54.180Z,64.40
2019-04-03T06:55:25.318Z,64.00
2019-04-03T06:57:54.229Z,64.30
2019-04-03T07:00:23.504Z,64.40
2019-04-03T07:02:52.772Z,64.50
2019-04-03T07:05:22.099Z,64.60
2019-04-03T07:07:51.365Z,64.20
2019-04-03T07:10:25.740Z,66.10
2019-04-03T07:12:51.491Z,65.80
2019-04-03T07:15:20.993Z,65.50
2019-04-03T07:17:51.732Z,66.70
2019-04-03T07:20:21.236Z,66.10
2019-04-03T07:22:50.503Z,65.40
2019-04-03T07:25:19.627Z,65.00
2019-04-03T07:27:48.825Z,64.70
2019-04-03T07:30:18.162Z,64.60
2019-04-03T07:32:47.425Z,64.40
2019-04-03T07:35:16.585Z,63.60
2019-04-03T07:37:45.828Z,64.60
2019-04-03T07:40:14.976Z,64.20
2019-04-03T07:42:44.371Z,64.10
2019-04-03T07:45:13.989Z,63.70
2019-04-03T07:47:43.454Z,63.70
2019-04-03T07:50:12.985Z,64.40
2019-04-03T07:52:42.784Z,64.40
2019-04-03T07:55:12.313Z,64.40
2019-04-03T07:57:41.637Z,64.30
2019-04-03T08:00:11.093Z,64.30
2019-04-03T08:02:45.364Z,64.30
2019-04-03T08:05:12.968Z,64.40
2019-04-03T08:07:42.242Z,64.30
2019-04-03T08:10:11.392Z,64.10
2019-04-03T08:12:40.591Z,63.90
2019-04-03T08:15:12.742Z,64.10
2019-04-03T08:17:40.675Z,63.70
2019-04-03T08:20:09.903Z,63.20
2019-04-03T08:22:39.142Z,63.20
2019-04-03T08:25:10.714Z,63.30
2019-04-03T08:27:39.262Z,63.40
2019-04-03T08:30:08.816Z,63.00
2019-04-03T08:32:38.125Z,63.10
2019-04-03T08:35:19.879Z,62.60
2019-04-03T08:37:40.529Z,63.30
2019-04-03T08:40:09.203Z,62.90
2019-04-03T08:42:38.328Z,62.60
2019-04-03T08:45:09.301Z,62.50
2019-04-03T08:47:40.811Z,62.00
2019-04-03T08:50:10.490Z,62.10
2019-04-03T08:52:39.724Z,62.20
2019-04-03T08:55:09.189Z,61.70
2019-04-03T08:57:38.709Z,61.60
2019-04-03T09:00:07.918Z,61.30
2019-04-03T09:02:37.002Z,61.30
2019-04-03T09:05:07.079Z,60.70
2019-04-03T09:07:36.273Z,60.80
2019-04-03T09:10:06.466Z,61.00
2019-04-03T09:12:37.578Z,60.10
2019-04-03T09:15:06.865Z,60.00
2019-04-03T09:17:36.074Z,59.90
2019-04-03T09:20:05.541Z,59.20
2019-04-03T09:22:34.801Z,59.40
2019-04-03T09:25:04.354Z,59.30
2019-04-03T09:27:33.674Z,59.30
2019-04-03T09:30:03.092Z,59.60
2019-04-03T09:32:32.308Z,58.60
2019-04-03T09:35:02.413Z,58.90
2019-04-03T09:37:32.012Z,59.40
2019-04-03T09:40:01.248Z,59.10
2019-04-03T09:42:30.418Z,58.90
2019-04-03T09:44:59.514Z,59.20
2019-04-03T09:47:28.630Z,58.70
2019-04-03T09:49:57.736Z,58.70
2019-04-03T09:52:37.975Z,58.70
2019-04-03T09:54:59.765Z,57.70
2019-04-03T09:57:30.762Z,58.50
2019-04-03T09:59:59.507Z,58.00
2019-04-03T10:02:28.740Z,59.00
2019-04-03T10:04:59.054Z,57.30
2019-04-03T10:07:31.006Z,57.80
2019-04-03T10:09:59.183Z,58.10
2019-04-03T10:12:28.319Z,56.90
2019-04-03T10:14:59.210Z,57.40
2019-04-03T10:17:28.552Z,57.30
2019-04-03T10:19:57.730Z,56.70
2019-04-03T10:22:26.882Z,57.40
2019-04-03T10:24:56.338Z,57.50
2019-04-03T10:27:25.785Z,58.20
2019-04-03T10:29:56.376Z,59.20
2019-04-03T10:32:27.991Z,59.60
2019-04-03T10:34:57.774Z,59.40
2019-04-03T10:37:27.211Z,58.30
2019-04-03T10:39:56.358Z,56.40
2019-04-03T10:42:25.794Z,57.50
2019-04-03T10:44:55.104Z,57.30
2019-04-03T10:47:30.180Z,57.70
2019-04-03T10:49:55.373Z,56.90
2019-04-03T10:52:24.794Z,55.00
2019-04-03T10:54:54.293Z,54.90
2019-04-03T10:57:25.089Z,55.40
2019-04-03T10:59:55.083Z,55.40
2019-04-03T11:02:24.825Z,54.50
2019-04-03T11:04:53.924Z,54.60
2019-04-03T11:07:23.075Z,54.60
2019-04-03T11:09:52.236Z,53.10
2019-04-03T11:12:23.443Z,54.40
2019-04-03T11:14:52.635Z,55.20
2019-04-03T11:17:23.777Z,55.10
2019-04-03T11:19:52.811Z,55.30
2019-04-03T11:22:22.286Z,54.80
2019-04-03T11:24:51.890Z,54.90
2019-04-03T11:27:22.971Z,54.70
2019-04-03T11:29:52.066Z,55.80
2019-04-03T11:32:23.137Z,55.60
2019-04-03T11:34:53.758Z,54.50
2019-04-03T11:37:23.108Z,54.60
2019-04-03T11:40:02.459Z,55.60
2019-04-03T11:42:27.177Z,56.00
2019-04-03T11:44:54.292Z,56.20
2019-04-03T11:47:23.622Z,56.10
2019-04-03T11:49:53.233Z,56.70
2019-04-03T11:52:23.355Z,56.90
2019-04-03T11:54:53.397Z,57.30
2019-04-03T11:57:22.895Z,56.20
2019-04-03T11:59:53.000Z,56.60
2019-04-03T12:02:23.066Z,56.60
2019-04-03T12:04:53.577Z,55.30
2019-04-03T12:07:24.627Z,56.30
2019-04-03T12:09:54.011Z,56.00
2019-04-03T12:12:23.810Z,56.70
2019-04-03T12:14:53.224Z,55.90
2019-04-03T12:17:22.663Z,56.60
2019-04-03T12:19:52.111Z,55.30
2019-04-03T12:22:22.597Z,55.90
2019-04-03T12:24:52.351Z,54.60
2019-04-03T12:27:21.550Z,54.70
2019-04-03T12:29:53.866Z,55.10
2019-04-03T12:32:21.625Z,55.60
2019-04-03T12:34:50.991Z,55.30
2019-04-03T12:37:20.588Z,56.10
2019-04-03T12:39:49.944Z,55.10
2019-04-03T12:42:19.075Z,55.10
2019-04-03T12:44:48.200Z,55.70
2019-04-03T12:47:17.326Z,54.70
2019-04-03T12:49:46.438Z,54.60
2019-04-03T12:52:15.702Z,54.50
2019-04-03T12:54:45.023Z,56.20
2019-04-03T12:57:14.175Z,54.90
2019-04-03T12:59:43.736Z,55.20
2019-04-03T13:02:14.293Z,54.90
2019-04-03T13:04:43.660Z,54.00
2019-04-03T13:07:14.468Z,54.00
2019-04-03T13:09:44.337Z,54.10
2019-04-03T13:12:13.982Z,53.00
2019-04-03T13:14:44.581Z,54.80
2019-04-03T13:17:14.790Z,54.00
2019-04-03T13:19:44.626Z,54.10
2019-04-03T13:22:13.864Z,53.70
2019-04-03T13:24:43.173Z,51.50
2019-04-03T13:27:12.399Z,51.90
2019-04-03T13:29:41.687Z,52.00
2019-04-03T13:32:10.929Z,51.50
2019-04-03T13:34:42.679Z,51.50
2019-04-03T13:37:11.128Z,53.90
2019-04-03T13:39:40.539Z,52.10
2019-04-03T13:42:11.332Z,53.00
2019-04-03T13:44:40.773Z,52.00
2019-04-03T13:47:15.826Z,51.90
2019-04-03T13:49:45.392Z,54.10
2019-04-03T13:52:17.785Z,53.70
2019-04-03T13:54:47.000Z,52.00
2019-04-03T13:57:16.315Z,50.80
2019-04-03T13:59:48.260Z,48.90
2019-04-03T14:02:17.621Z,50.20
2019-04-03T14:04:48.969Z,50.00
2019-04-03T14:07:17.703Z,51.60
2019-04-03T14:09:50.643Z,48.80
2019-04-03T14:12:17.946Z,49.00
2019-04-03T14:14:47.927Z,46.00
2019-04-03T14:17:18.710Z,46.20
2019-04-03T14:19:50.595Z,48.00
2019-04-03T14:22:19.339Z,49.00
2019-04-03T14:24:52.070Z,50.00
2019-04-03T14:27:24.475Z,50.60
2019-04-03T14:29:50.649Z,48.30
2019-04-03T14:32:21.718Z,48.20
2019-04-03T14:34:51.389Z,46.80
2019-04-03T14:37:25.512Z,47.50
2019-04-03T14:39:51.427Z,48.40
2019-04-03T14:42:20.788Z,49.60
2019-04-03T14:44:51.300Z,50.60
2019-04-03T14:47:23.993Z,50.70
2019-04-03T14:49:54.920Z,50.30
2019-04-03T14:52:24.116Z,47.70
2019-04-03T14:54:56.742Z,49.30
2019-04-03T14:57:28.387Z,51.50
2019-04-03T14:59:58.088Z,51.60
2019-04-03T15:02:27.186Z,50.40
2019-04-03T15:04:56.555Z,52.40
2019-04-03T15:07:27.973Z,51.40
2019-04-03T15:09:57.233Z,52.40
2019-04-03T15:12:27.997Z,53.60
2019-04-03T15:14:57.143Z,53.70
2019-04-03T15:17:27.624Z,53.20
2019-04-03T15:19:57.233Z,53.50
2019-04-03T15:22:26.911Z,53.70
2019-04-03T15:24:56.253Z,53.80
2019-04-03T15:27:27.539Z,54.10
2019-04-03T15:29:56.721Z,54.40
2019-04-03T15:32:26.461Z,52.80
2019-04-03T15:34:57.214Z,54.20
2019-04-03T15:37:26.834Z,54.40
2019-04-03T15:39:59.132Z,55.30
2019-04-03T15:42:29.092Z,54.80
2019-04-03T15:44:58.694Z,54.40
2019-04-03T15:47:37.509Z,53.60
2019-04-03T15:50:00.433Z,53.70
2019-04-03T15:52:29.800Z,53.90
2019-04-03T15:54:59.063Z,53.50
2019-04-03T15:57:28.678Z,53.30
2019-04-03T15:59:58.024Z,53.40
2019-04-03T16:02:28.597Z,53.80
2019-04-03T16:04:59.429Z,54.50
2019-04-03T16:07:31.716Z,55.40
2019-04-03T16:10:00.120Z,55.50
2019-04-03T16:12:30.225Z,54.20
2019-04-03T16:14:59.656Z,55.10
2019-04-03T16:17:32.311Z,55.20
2019-04-03T16:20:01.079Z,55.40
2019-04-03T16:22:31.707Z,55.10
2019-04-03T16:25:01.224Z,54.80
2019-04-03T16:27:30.697Z,54.50
2019-04-03T16:29:59.989Z,53.90
2019-04-03T16:32:29.370Z,55.10
2019-04-03T16:34:58.981Z,55.20
2019-04-03T16:37:28.154Z,54.70
2019-04-03T16:39:57.469Z,54.60
2019-04-03T16:42:27.146Z,54.50
2019-04-03T16:44:58.330Z,54.80
2019-04-03T16:47:27.780Z,55.00
2019-04-03T16:49:58.725Z,55.00
2019-04-03T16:52:30.185Z,54.30
2019-04-03T16:55:00.972Z,54.50
2019-04-03T16:57:37.492Z,55.30
2019-04-03T17:00:08.939Z,55.10
2019-04-03T17:02:38.420Z,55.50
2019-04-03T17:05:10.294Z,56.00
2019-04-03T17:07:38.613Z,55.70
2019-04-03T17:10:10.051Z,56.50
2019-04-03T17:12:38.900Z,55.20
2019-04-03T17:15:09.745Z,56.00
2019-04-03T17:17:39.299Z,55.10
2019-04-03T17:20:09.729Z,54.50
2019-04-03T17:22:45.083Z,55.00
2019-04-03T17:25:14.306Z,54.80
2019-04-03T17:27:55.218Z,54.90
2019-04-03T17:30:20.083Z,55.60
2019-04-03T17:32:51.690Z,55.70
2019-04-03T17:35:21.392Z,55.40
2019-04-03T17:37:50.782Z,55.90
2019-04-03T17:40:20.105Z,56.10
2019-04-03T17:42:49.229Z,56.20
2019-04-03T17:45:18.960Z,56.00
2019-04-03T17:47:49.649Z,56.10
2019-04-03T17:50:21.113Z,56.20
2019-04-03T17:52:59.469Z,56.50
2019-04-03T17:56:07.624Z,56.70
2019-04-03T17:58:40.240Z,56.50
2019-04-03T18:01:34.928Z,56.70
2019-04-03T18:04:15.551Z,57.00
2019-04-03T18:06:50.223Z,57.20
2019-04-03T18:09:21.839Z,57.10
2019-04-03T18:11:57.987Z,57.50
2019-04-03T18:14:36.373Z,57.80
2019-04-03T18:20:14.606Z,57.80
2019-04-03T18:23:10.921Z,58.00
2019-04-03T18:25:47.291Z,58.00
2019-04-03T18:29:07.221Z,58.00
2019-04-03T18:31:44.536Z,57.90
2019-04-03T18:34:22.066Z,58.20
2019-04-03T18:37:01.871Z,57.80
2019-04-03T18:39:34.151Z,58.30
2019-04-03T18:42:11.724Z,58.00
2019-04-03T18:45:00.542Z,58.10
2019-04-03T18:48:05.750Z,58.30
2019-04-03T18:50:51.267Z,58.50
2019-04-03T18:53:53.745Z,59.10
2019-04-03T18:56:49.833Z,60.20
2019-04-03T18:59:31.275Z,61.10
2019-04-03T19:02:18.347Z,61.10
2019-04-03T19:05:01.118Z,61.50
2019-04-03T19:07:47.799Z,61.80
2019-04-03T19:11:01.643Z,62.40
2019-04-03T19:13:28.245Z,62.90
2019-04-03T19:16:08.327Z,63.50
2019-04-03T19:19:10.443Z,63.30
2019-04-03T19:22:04.035Z,62.60
2019-04-03T19:24:58.743Z,62.40
2019-04-03T19:27:28.820Z,62.60
2019-04-03T19:29:58.684Z,62.50
2019-04-03T19:32:34.487Z,62.20
2019-04-03T19:35:09.528Z,62.80
2019-04-03T19:37:41.323Z,62.30
2019-04-03T19:40:11.235Z,62.70
2019-04-03T19:42:41.871Z,62.30
2019-04-03T19:45:13.742Z,62.40
2019-04-03T19:47:45.894Z,62.20
2019-04-03T19:50:17.765Z,62.90
2019-04-03T19:52:47.255Z,62.20
2019-04-03T19:55:19.251Z,62.00
2019-04-03T19:57:49.995Z,62.70
2019-04-03T20:00:23.625Z,62.50
2019-04-03T20:02:54.503Z,62.90
2019-04-03T20:05:25.765Z,62.00
2019-04-03T20:07:55.030Z,62.90
2019-04-03T20:10:27.981Z,63.30
2019-04-03T20:12:57.344Z,62.30
2019-04-03T20:15:26.498Z,62.50
2019-04-03T20:17:58.786Z,62.30
2019-04-03T20:20:33.583Z,62.10
2019-04-03T20:23:02.488Z,61.60
2019-04-03T20:25:36.715Z,61.40
2019-04-03T20:28:07.882Z,61.80
2019-04-03T20:30:37.971Z,62.20
2019-04-03T20:33:09.724Z,62.20
2019-04-03T20:35:51.166Z,61.80
2019-04-03T20:38:21.745Z,61.40
2019-04-03T20:40:51.413Z,61.20
2019-04-03T20:43:23.852Z,61.00
2019-04-03T20:45:59.019Z,61.00
2019-04-03T20:48:28.752Z,60.90
2019-04-03T20:51:00.364Z,60.90
2019-04-03T20:53:30.042Z,60.90
2019-04-03T20:55:59.799Z,61.00
2019-04-03T20:58:31.052Z,61.10
2019-04-03T21:01:06.788Z,60.90
2019-04-03T21:03:34.290Z,61.10
2019-04-03T21:06:03.929Z,60.90
2019-04-03T21:08:54.304Z,62.20
2019-04-03T21:11:23.656Z,61.00
2019-04-03T21:13:55.173Z,61.20
2019-04-03T21:16:33.249Z,61.00
2019-04-03T21:18:55.454Z,61.20
2019-04-03T21:21:26.279Z,61.40
2019-04-03T21:23:56.074Z,61.30
2019-04-03T21:26:25.323Z,61.20
2019-04-03T21:28:54.525Z,61.40
2019-04-03T21:31:25.962Z,61.50
2019-04-03T21:34:01.558Z,61.70
2019-04-03T21:36:31.665Z,61.50
2019-04-03T21:39:00.850Z,61.80
2019-04-03T21:41:30.108Z,61.30
2019-04-03T21:44:02.877Z,61.80
2019-04-03T21:46:32.092Z,61.60
2019-04-03T21:49:01.267Z,61.40
2019-04-03T21:51:33.603Z,61.30
2019-04-03T21:54:02.804Z,61.40
2019-04-03T21:56:33.428Z,61.40
2019-04-03T21:59:02.845Z,61.30
2019-04-03T22:01:32.231Z,61.50
2019-04-03T22:04:04.189Z,61.60
2019-04-03T22:06:33.371Z,61.60
2019-04-03T22:09:03.477Z,62.60
2019-04-03T22:11:34.845Z,61.70
2019-04-03T22:14:06.019Z,61.90
2019-04-03T22:16:37.074Z,61.60
2019-04-03T22:19:06.563Z,61.70
2019-04-03T22:21:35.778Z,61.90
2019-04-03T22:24:09.356Z,61.80
2019-04-03T22:26:40.790Z,62.60
2019-04-03T22:29:11.303Z,61.80
2019-04-03T22:31:40.625Z,62.00
2019-04-03T22:34:10.219Z,62.70
2019-04-03T22:36:42.435Z,62.20
2019-04-03T22:39:13.655Z,62.00
2019-04-03T22:41:46.671Z,62.40
2019-04-03T22:44:17.108Z,63.30
2019-04-03T22:46:47.091Z,62.60
2019-04-03T22:49:16.381Z,62.30
2019-04-03T22:51:46.093Z,62.00
2019-04-03T22:54:15.233Z,62.30
2019-04-03T22:56:45.897Z,62.70
2019-04-03T22:59:15.427Z,62.50
2019-04-03T23:01:44.664Z,62.30
2019-04-03T23:04:14.705Z,62.60
2019-04-03T23:06:43.918Z,62.70
2019-04-03T23:09:14.057Z,62.80
2019-04-03T23:11:43.203Z,63.00
2019-04-03T23:14:12.475Z,64.00
2019-04-03T23:16:42.675Z,63.80
2019-04-03T23:19:12.418Z,63.00
2019-04-03T23:21:44.214Z,63.90
2019-04-03T23:24:14.786Z,63.20
2019-04-03T23:26:44.228Z,62.90
2019-04-03T23:29:13.436Z,63.70
2019-04-03T23:31:45.519Z,63.80
2019-04-03T23:34:15.135Z,63.40
2019-04-03T23:36:47.647Z,63.60
2019-04-03T23:39:19.243Z,65.10
2019-04-03T23:41:49.000Z,63.30
2019-04-03T23:44:18.435Z,62.50
2019-04-03T23:46:47.703Z,62.30
2019-04-03T23:49:18.153Z,62.30
2019-04-03T23:51:50.824Z,62.30
2019-04-03T23:54:20.008Z,62.50
2019-04-03T23:56:51.886Z,63.60
2019-04-03T23:59:21.081Z,63.40
